Decoded Metar for EPKK (KRAKOW in POLAND) (IATA:KRK) | Meteo·Mobile Aviation Weather
aviador You're here:

EPKK Decoded Metar

KRAKOW in POLAND
Report Time2019-01-17 23:30:00
UTC Time2019-01-18 00:00:23
Flight Rules vfr VFR
Wind230° at 13 kt
W.Decomp.*RWY 25: 12.0 kt HW 5.1 kt LCW
W.Rank230° ranks 5
Current wind is above 230° avg. (6.1)
Visibility9999 m
Phenomena:N/A
Clouds:Scattered 060 Hf
Expected CloudBase > 2,000 ft AGL from Temp-Dew spread
CeilingNone
Temp06°C (ISA -7)
Dew Point01°C (71% RH)
AAT-0.5°C
QNH1005 hPa
Density Alt246 ft
Elevation778 ft
Report Wrong Elevation
Raw Report
EPKK 172330Z 23013KT 9999 SCT060 06/01 Q1005=

Extra information for EPKK:More info

Metar Taf Metar & Taf Last 4 Metars F.Rules Stats Wind Profile Meteogram Temp Stats Airport Information Weather charts Add Link Nearby VenuesMetar ALERT Operation Metar Decoded Social comments